Terminal Aerodrome Forecast
Issued by NWS Sioux Falls, SD

Home | Current Version | Previous Version | Graphics & Text | Print | Product List | Glossary On
Versions: 1 2 3 4 5 6 7 8 9 10 11 12 13 14 15
290
FTUS43 KFSD 290523
TAFHON
TAF
KHON 290523Z 2906/3006 05004KT P6SM BKN250
     FM291600 05008KT P6SM SCT200
     FM292000 04012KT P6SM SCT200
     FM300300 04008KT P6SM BKN110=

USA.gov is the U.S. government's official web portal to all federal, state and local government web resources and services.